createdAt,value
2023-01-19T00:00:34.400Z,6.30
2023-01-19T00:03:37.128Z,6.28
2023-01-19T00:06:39.112Z,7.40
2023-01-19T00:09:40.778Z,6.50
2023-01-19T00:12:42.582Z,6.85
2023-01-19T00:15:44.412Z,6.32
2023-01-19T00:18:46.316Z,6.47
2023-01-19T00:21:48.015Z,5.90
2023-01-19T00:24:50.352Z,6.68
2023-01-19T00:27:52.032Z,6.32
2023-01-19T00:30:53.632Z,5.60
2023-01-19T00:33:55.438Z,5.95
2023-01-19T00:36:57.035Z,6.25
2023-01-19T00:39:58.815Z,6.28
2023-01-19T00:43:00.907Z,5.47
2023-01-19T00:46:02.950Z,6.63
2023-01-19T00:49:05.737Z,6.18
2023-01-19T00:52:07.480Z,6.22
2023-01-19T00:55:11.608Z,6.45
2023-01-19T00:58:13.360Z,6.70
2023-01-19T01:01:15.131Z,5.63
2023-01-19T01:04:16.905Z,6.35
2023-01-19T01:07:18.542Z,6.25
2023-01-19T01:10:23.367Z,6.25
2023-01-19T01:13:27.541Z,5.95
2023-01-19T01:16:29.826Z,5.97
2023-01-19T01:19:31.800Z,6.95
2023-01-19T01:22:33.494Z,6.50
2023-01-19T01:25:37.789Z,6.15
2023-01-19T01:28:39.377Z,5.50
2023-01-19T01:31:41.148Z,5.60
2023-01-19T01:34:42.867Z,5.55
2023-01-19T01:37:45.687Z,6.00
2023-01-19T01:40:47.302Z,5.32
2023-01-19T01:43:58.153Z,5.90
2023-01-19T01:47:00.636Z,5.93
2023-01-19T01:50:23.658Z,5.82
2023-01-19T01:53:25.283Z,6.15
2023-01-19T01:56:42.529Z,5.43
2023-01-19T01:59:48.610Z,5.43
2023-01-19T02:02:51.119Z,6.10
2023-01-19T02:05:57.553Z,6.70
2023-01-19T02:09:25.932Z,6.25
2023-01-19T02:12:47.948Z,5.95
2023-01-19T02:16:02.905Z,5.72
2023-01-19T02:19:07.271Z,5.97
2023-01-19T02:22:20.331Z,5.82
2023-01-19T02:25:22.714Z,5.40
2023-01-19T02:28:26.077Z,5.68
2023-01-19T02:31:31.047Z,5.90
2023-01-19T02:34:32.906Z,6.22
2023-01-19T02:37:40.173Z,6.43
2023-01-19T02:40:45.166Z,6.05
2023-01-19T02:43:49.564Z,6.53
2023-01-19T02:46:54.193Z,6.80
2023-01-19T02:50:00.745Z,6.18
2023-01-19T02:53:17.294Z,5.75
2023-01-19T02:56:49.951Z,6.00
2023-01-19T03:00:26.937Z,6.38
2023-01-19T03:03:40.828Z,5.75
2023-01-19T03:07:08.815Z,6.32
2023-01-19T03:10:20.539Z,5.78
2023-01-19T03:13:40.213Z,5.63
2023-01-19T03:16:55.300Z,5.78
2023-01-19T03:19:58.074Z,6.13
2023-01-19T03:23:04.403Z,5.75
2023-01-19T03:26:11.060Z,6.35
2023-01-19T03:29:15.112Z,4.93
2023-01-19T03:32:20.109Z,5.90
2023-01-19T03:35:25.478Z,5.82
2023-01-19T03:38:28.951Z,5.65
2023-01-19T03:41:32.774Z,5.68
2023-01-19T03:44:38.095Z,5.60
2023-01-19T03:47:40.530Z,6.13
2023-01-19T03:50:43.299Z,6.60
2023-01-19T03:53:45.848Z,6.20
2023-01-19T03:56:47.607Z,6.28
2023-01-19T03:59:49.537Z,5.95
2023-01-19T04:02:51.267Z,6.22
2023-01-19T04:05:53.029Z,6.25
2023-01-19T04:08:56.021Z,5.97
2023-01-19T04:11:57.605Z,6.22
2023-01-19T04:14:59.298Z,5.93
2023-01-19T04:18:01.173Z,6.18
2023-01-19T04:21:04.976Z,6.32
2023-01-19T04:24:07.397Z,5.75
2023-01-19T04:27:09.161Z,6.57
2023-01-19T04:30:11.356Z,5.65
2023-01-19T04:33:12.897Z,5.65
2023-01-19T04:36:14.623Z,6.38
2023-01-19T04:39:16.415Z,5.90
2023-01-19T04:42:18.361Z,6.00
2023-01-19T04:45:20.438Z,6.22
2023-01-19T04:48:22.191Z,6.30
2023-01-19T04:51:24.141Z,6.13
2023-01-19T04:54:27.665Z,5.63
2023-01-19T04:57:30.237Z,6.50
2023-01-19T05:00:32.176Z,5.57
2023-01-19T05:03:33.793Z,6.28
2023-01-19T05:06:35.633Z,5.85
2023-01-19T05:09:37.324Z,6.05
2023-01-19T05:12:39.156Z,6.40
2023-01-19T05:15:40.757Z,6.07
2023-01-19T05:18:42.385Z,5.70
2023-01-19T05:21:44.106Z,5.85
2023-01-19T05:24:45.827Z,6.25
2023-01-19T05:27:47.892Z,5.95
2023-01-19T05:30:50.193Z,6.28
2023-01-19T05:33:52.281Z,5.40
2023-01-19T05:36:54.194Z,5.80
2023-01-19T05:39:56.175Z,5.82
2023-01-19T05:43:01.126Z,5.88
2023-01-19T05:46:09.473Z,5.70
2023-01-19T05:49:12.917Z,5.07
2023-01-19T05:52:14.943Z,5.28
2023-01-19T05:55:16.682Z,4.90
2023-01-19T05:58:21.619Z,5.80
2023-01-19T06:01:23.548Z,5.03
2023-01-19T06:04:25.423Z,6.15
2023-01-19T06:07:29.090Z,5.18
2023-01-19T06:10:31.196Z,5.82
2023-01-19T06:13:33.722Z,5.60
2023-01-19T06:16:35.686Z,5.85
2023-01-19T06:19:37.891Z,5.65
2023-01-19T06:22:39.763Z,4.95
2023-01-19T06:25:41.551Z,5.15
2023-01-19T06:28:43.115Z,5.07
2023-01-19T06:31:45.538Z,5.47
2023-01-19T06:34:47.461Z,5.40
2023-01-19T06:37:49.088Z,5.00
2023-01-19T06:40:58.823Z,6.00
2023-01-19T06:44:00.814Z,5.13
2023-01-19T06:47:14.920Z,5.38
2023-01-19T06:50:18.330Z,5.78
2023-01-19T06:53:22.186Z,4.88
2023-01-19T06:56:24.051Z,5.45
2023-01-19T06:59:26.222Z,5.20
2023-01-19T07:02:28.686Z,5.35
2023-01-19T07:05:30.787Z,6.22
2023-01-19T07:08:36.432Z,5.30
2023-01-19T07:11:38.217Z,5.07
2023-01-19T07:14:40.101Z,5.30
2023-01-19T07:17:42.526Z,5.00
2023-01-19T07:20:45.958Z,4.82
2023-01-19T07:23:53.361Z,4.88
2023-01-19T07:26:55.125Z,4.60
2023-01-19T07:29:57.214Z,4.68
2023-01-19T07:32:59.257Z,4.78
2023-01-19T07:36:01.414Z,5.18
2023-01-19T07:39:03.194Z,4.97
2023-01-19T07:42:05.100Z,4.90
2023-01-19T07:45:07.869Z,4.72
2023-01-19T07:48:10.036Z,4.93
2023-01-19T07:51:19.074Z,4.85
2023-01-19T07:54:20.938Z,4.68
2023-01-19T07:57:23.209Z,4.90
2023-01-19T08:00:25.482Z,4.70
2023-01-19T08:03:27.273Z,4.45
2023-01-19T08:06:39.884Z,4.35
2023-01-19T08:09:42.552Z,5.50
2023-01-19T08:12:44.363Z,4.75
2023-01-19T08:15:53.105Z,4.45
2023-01-19T08:18:55.383Z,4.82
2023-01-19T08:21:58.925Z,4.82
2023-01-19T08:25:01.081Z,4.70
2023-01-19T08:28:05.356Z,4.82
2023-01-19T08:31:19.153Z,5.38
2023-01-19T08:34:22.109Z,4.20
2023-01-19T08:37:24.891Z,5.30
2023-01-19T08:40:28.736Z,4.70
2023-01-19T08:43:30.341Z,4.70
2023-01-19T08:46:32.148Z,4.40
2023-01-19T08:49:34.083Z,4.82
2023-01-19T08:52:35.852Z,5.53
2023-01-19T08:55:38.013Z,5.30
2023-01-19T08:58:42.264Z,4.78
2023-01-19T09:01:46.217Z,4.60
2023-01-19T09:04:48.093Z,5.32
2023-01-19T09:07:51.844Z,5.05
2023-01-19T09:10:53.618Z,6.07
2023-01-19T09:13:55.590Z,5.53
2023-01-19T09:16:57.419Z,5.93
2023-01-19T09:19:59.392Z,5.63
2023-01-19T09:23:01.181Z,5.75
2023-01-19T09:26:05.376Z,5.63
2023-01-19T09:29:07.297Z,5.25
2023-01-19T09:32:11.229Z,5.72
2023-01-19T09:35:14.648Z,5.45
2023-01-19T09:38:16.967Z,5.72
2023-01-19T09:41:22.846Z,5.03
2023-01-19T09:44:35.529Z,5.18
2023-01-19T09:47:39.394Z,5.03
2023-01-19T09:50:47.025Z,5.15
2023-01-19T09:54:03.114Z,5.20
2023-01-19T09:57:11.353Z,4.63
2023-01-19T10:00:24.516Z,5.10
2023-01-19T10:03:26.238Z,4.45
2023-01-19T10:06:30.678Z,4.57
2023-01-19T10:09:47.727Z,3.75
2023-01-19T10:13:23.781Z,4.35
2023-01-19T10:16:31.604Z,3.85
2023-01-19T10:19:38.163Z,4.47
2023-01-19T10:22:49.853Z,4.10
2023-01-19T10:25:52.289Z,4.65
2023-01-19T10:29:21.110Z,3.88
2023-01-19T10:32:27.617Z,4.22
2023-01-19T10:35:30.054Z,3.97
2023-01-19T10:38:34.337Z,4.15
2023-01-19T10:41:53.337Z,4.65
2023-01-19T10:44:55.647Z,4.25
2023-01-19T10:48:07.675Z,4.10
2023-01-19T10:51:11.101Z,3.55
2023-01-19T10:54:13.714Z,3.42
2023-01-19T10:57:31.414Z,2.80
2023-01-19T11:00:41.703Z,3.15
2023-01-19T11:03:43.787Z,2.65
2023-01-19T11:06:45.571Z,3.47
2023-01-19T11:09:48.747Z,2.90
2023-01-19T11:13:04.600Z,2.70
2023-01-19T11:16:15.792Z,2.78
2023-01-19T11:19:27.986Z,3.10
2023-01-19T11:22:33.428Z,2.80
2023-01-19T11:25:36.298Z,2.83
2023-01-19T11:28:44.974Z,3.40
2023-01-19T11:31:47.139Z,2.75
2023-01-19T11:34:49.749Z,2.38
2023-01-19T11:38:06.461Z,2.47
2023-01-19T11:41:18.766Z,2.80
2023-01-19T11:44:31.769Z,2.72
2023-01-19T11:47:43.927Z,2.55
2023-01-19T11:50:46.348Z,3.45
2023-01-19T11:53:52.737Z,3.35
2023-01-19T11:56:58.878Z,3.17
2023-01-19T12:00:05.185Z,3.58
2023-01-19T12:03:21.161Z,3.28
2023-01-19T12:06:30.962Z,3.25
2023-01-19T12:09:42.811Z,3.30
2023-01-19T12:12:44.880Z,3.22
2023-01-19T12:15:48.219Z,3.38
2023-01-19T12:19:16.122Z,3.00
2023-01-19T12:22:21.082Z,3.00
2023-01-19T12:25:29.820Z,2.38
2023-01-19T12:28:36.801Z,2.40
2023-01-19T12:31:40.581Z,1.83
2023-01-19T12:34:55.884Z,1.60
2023-01-19T12:37:57.780Z,1.30
2023-01-19T12:41:19.854Z,1.20
2023-01-19T12:44:24.363Z,1.50
2023-01-19T12:47:27.354Z,1.70
2023-01-19T12:50:40.231Z,1.73
2023-01-19T12:53:54.622Z,1.70
2023-01-19T12:57:17.116Z,2.42
2023-01-19T13:00:24.682Z,2.30
2023-01-19T13:03:26.960Z,2.17
2023-01-19T13:07:05.700Z,2.22
2023-01-19T13:10:44.771Z,2.53
2023-01-19T13:13:59.154Z,2.92
2023-01-19T13:17:03.646Z,3.13
2023-01-19T13:20:22.687Z,3.40
2023-01-19T13:23:27.405Z,3.13
2023-01-19T13:26:33.201Z,3.63
2023-01-19T13:29:37.444Z,4.35
2023-01-19T13:32:42.268Z,3.65
2023-01-19T13:35:54.660Z,4.07
2023-01-19T13:39:00.054Z,4.25
2023-01-19T13:42:06.154Z,4.90
2023-01-19T13:45:11.771Z,4.50
2023-01-19T13:48:18.030Z,4.00
2023-01-19T13:51:20.464Z,4.45
2023-01-19T13:54:26.120Z,4.15
2023-01-19T13:57:27.764Z,4.97
2023-01-19T14:00:30.974Z,4.35
2023-01-19T14:03:32.969Z,4.25
2023-01-19T14:06:36.822Z,4.15
2023-01-19T14:09:39.570Z,4.13
2023-01-19T14:12:54.554Z,4.20
2023-01-19T14:16:06.218Z,4.05
2023-01-19T14:19:08.397Z,3.75
2023-01-19T14:22:10.279Z,4.40
2023-01-19T14:25:35.678Z,5.60
2023-01-19T14:28:45.726Z,4.43
2023-01-19T14:31:50.050Z,4.78
2023-01-19T14:35:07.397Z,4.88
2023-01-19T14:38:14.299Z,4.57
2023-01-19T14:41:49.697Z,4.70
2023-01-19T14:44:53.548Z,4.90
2023-01-19T14:47:55.646Z,4.88
2023-01-19T14:51:05.332Z,5.35
2023-01-19T14:54:18.074Z,5.40
2023-01-19T14:57:20.368Z,5.90
2023-01-19T15:00:28.225Z,5.65
2023-01-19T15:03:44.727Z,5.20
2023-01-19T15:06:48.790Z,4.85
2023-01-19T15:09:51.319Z,5.20
2023-01-19T15:12:54.972Z,4.63
2023-01-19T15:15:58.663Z,5.07
2023-01-19T15:19:00.643Z,4.65
2023-01-19T15:22:02.466Z,5.57
2023-01-19T15:25:04.532Z,4.38
2023-01-19T15:28:12.485Z,4.70
2023-01-19T15:31:26.938Z,4.85
2023-01-19T15:34:28.749Z,4.85
2023-01-19T15:37:30.720Z,5.00
2023-01-19T15:40:32.550Z,4.43
2023-01-19T15:43:34.272Z,4.85
2023-01-19T15:46:36.288Z,4.95
2023-01-19T15:49:38.096Z,5.22
2023-01-19T15:52:39.910Z,4.47
2023-01-19T15:55:42.175Z,4.78
2023-01-19T15:58:44.929Z,4.28
2023-01-19T16:01:47.170Z,5.05
2023-01-19T16:04:49.685Z,4.80
2023-01-19T16:07:52.010Z,5.35
2023-01-19T16:10:54.088Z,5.28
2023-01-19T16:13:55.994Z,4.63
2023-01-19T16:16:59.975Z,5.70
2023-01-19T16:20:01.944Z,4.93
2023-01-19T16:23:19.601Z,5.85
2023-01-19T16:26:27.470Z,5.25
2023-01-19T16:29:30.479Z,5.10
2023-01-19T16:32:34.021Z,6.03
2023-01-19T16:35:35.958Z,5.22
2023-01-19T16:38:38.027Z,6.03
2023-01-19T16:41:40.302Z,6.00
2023-01-19T16:44:42.605Z,5.68
2023-01-19T16:47:46.895Z,5.80
2023-01-19T16:51:06.090Z,6.07
2023-01-19T16:54:12.225Z,5.72
2023-01-19T16:57:15.163Z,6.10
2023-01-19T17:00:17.737Z,6.43
2023-01-19T17:03:19.745Z,6.03
2023-01-19T17:06:23.450Z,6.75
2023-01-19T17:09:25.157Z,6.78
2023-01-19T17:12:26.977Z,7.70
2023-01-19T17:15:30.670Z,7.18
2023-01-19T17:18:34.683Z,7.82
2023-01-19T17:21:36.602Z,7.07
2023-01-19T17:24:42.527Z,7.00
2023-01-19T17:27:44.595Z,7.72
2023-01-19T17:30:47.564Z,7.35
2023-01-19T17:33:50.871Z,7.40
2023-01-19T17:36:52.861Z,7.75
2023-01-19T17:39:55.292Z,7.88
2023-01-19T17:42:57.019Z,7.00
2023-01-19T17:45:59.938Z,7.18
2023-01-19T17:49:03.653Z,7.70
2023-01-19T17:52:05.343Z,7.80
2023-01-19T17:55:08.590Z,8.55
2023-01-19T17:58:12.388Z,8.25
2023-01-19T18:01:19.224Z,9.45
2023-01-19T18:04:21.045Z,8.68
2023-01-19T18:07:22.901Z,8.40
2023-01-19T18:10:24.741Z,9.00
2023-01-19T18:13:27.512Z,9.57
2023-01-19T18:16:30.222Z,8.85
2023-01-19T18:19:32.298Z,8.65
2023-01-19T18:22:34.362Z,9.23
2023-01-19T18:25:38.599Z,9.20
2023-01-19T18:28:40.675Z,9.63
2023-01-19T18:31:42.935Z,9.55
2023-01-19T18:34:45.788Z,9.25
2023-01-19T18:37:48.622Z,9.60
2023-01-19T18:41:00.797Z,9.95
2023-01-19T18:44:03.082Z,9.77
2023-01-19T18:47:05.815Z,10.35
2023-01-19T18:50:08.744Z,11.48
2023-01-19T18:53:10.837Z,10.30
2023-01-19T18:56:14.668Z,11.57
2023-01-19T18:59:16.504Z,13.50
2023-01-19T19:02:18.408Z,11.45
2023-01-19T19:05:20.091Z,12.13
2023-01-19T19:08:22.218Z,13.25
2023-01-19T19:11:25.444Z,14.07
2023-01-19T19:14:27.339Z,13.98
2023-01-19T19:17:29.497Z,13.85
2023-01-19T19:20:31.142Z,14.13
2023-01-19T19:23:33.749Z,14.65
2023-01-19T19:26:35.747Z,14.93
2023-01-19T19:29:37.429Z,15.65
2023-01-19T19:32:39.251Z,15.07
2023-01-19T19:35:41.104Z,15.35
2023-01-19T19:38:44.609Z,16.30
2023-01-19T19:41:46.486Z,15.38
2023-01-19T19:44:48.336Z,15.80
2023-01-19T19:47:51.276Z,16.13
2023-01-19T19:50:53.990Z,15.95
2023-01-19T19:53:59.522Z,14.43
2023-01-19T19:57:01.370Z,14.93
2023-01-19T20:00:05.177Z,16.08
2023-01-19T20:03:13.613Z,15.75
2023-01-19T20:06:21.427Z,15.43
2023-01-19T20:09:23.840Z,15.90
2023-01-19T20:12:25.654Z,16.63
2023-01-19T20:15:28.745Z,18.40
2023-01-19T20:18:31.846Z,17.25
2023-01-19T20:21:37.702Z,17.60
2023-01-19T20:24:39.487Z,19.13
2023-01-19T20:27:41.454Z,17.73
2023-01-19T20:30:43.740Z,18.25
2023-01-19T20:33:50.850Z,16.65
2023-01-19T20:36:54.029Z,18.02
2023-01-19T20:39:55.777Z,17.75
2023-01-19T20:42:57.425Z,17.35
2023-01-19T20:46:00.227Z,17.70
2023-01-19T20:49:02.058Z,17.00
2023-01-19T20:52:04.171Z,16.42
2023-01-19T20:55:08.911Z,16.73
2023-01-19T20:58:10.712Z,17.27
2023-01-19T21:01:15.500Z,16.95
2023-01-19T21:04:17.878Z,17.67
2023-01-19T21:07:19.879Z,18.73
2023-01-19T21:10:22.281Z,17.20
2023-01-19T21:13:24.404Z,17.23
2023-01-19T21:16:32.272Z,18.27
2023-01-19T21:19:34.085Z,18.10
2023-01-19T21:22:35.885Z,18.08
2023-01-19T21:25:38.705Z,17.20
2023-01-19T21:28:40.607Z,17.40
2023-01-19T21:31:42.761Z,17.08
2023-01-19T21:34:45.717Z,18.05
2023-01-19T21:37:47.889Z,17.45
2023-01-19T21:40:50.502Z,17.52
2023-01-19T21:43:54.906Z,17.92
2023-01-19T21:46:56.853Z,18.70
2023-01-19T21:49:58.851Z,17.80
2023-01-19T21:53:00.566Z,18.90
2023-01-19T21:56:02.304Z,18.27
2023-01-19T21:59:04.962Z,18.52
2023-01-19T22:02:06.804Z,18.30
2023-01-19T22:05:09.143Z,17.88
2023-01-19T22:08:10.936Z,18.55
2023-01-19T22:11:15.213Z,17.85
2023-01-19T22:14:16.846Z,17.17
2023-01-19T22:17:18.662Z,19.27
2023-01-19T22:20:20.750Z,18.15
2023-01-19T22:23:23.628Z,17.95
2023-01-19T22:26:26.586Z,17.25
2023-01-19T22:29:28.499Z,17.95
2023-01-19T22:32:31.558Z,18.50
2023-01-19T22:35:33.396Z,19.48
2023-01-19T22:38:35.474Z,16.60
2023-01-19T22:41:42.910Z,16.98
2023-01-19T22:44:46.155Z,17.30
2023-01-19T22:47:48.020Z,18.55
2023-01-19T22:50:56.133Z,18.98
2023-01-19T22:53:58.299Z,18.23
2023-01-19T22:57:00.329Z,17.80
2023-01-19T23:00:06.831Z,17.65
2023-01-19T23:03:08.483Z,17.60
2023-01-19T23:06:28.079Z,16.42
2023-01-19T23:09:29.864Z,16.20
2023-01-19T23:12:31.735Z,16.85
2023-01-19T23:15:34.433Z,16.60
2023-01-19T23:18:36.201Z,15.90
2023-01-19T23:21:37.780Z,18.05
2023-01-19T23:24:39.756Z,15.52
2023-01-19T23:27:41.760Z,15.52
2023-01-19T23:30:44.356Z,15.77
2023-01-19T23:33:46.575Z,15.65
2023-01-19T23:36:48.467Z,14.75
2023-01-19T23:39:50.356Z,15.80
2023-01-19T23:42:52.120Z,16.88
2023-01-19T23:45:54.032Z,15.95
2023-01-19T23:48:55.839Z,16.30
2023-01-19T23:51:58.600Z,16.40
2023-01-19T23:55:00.342Z,16.02
2023-01-19T23:58:02.163Z,16.20
